WZZ2VH ENBR-EPSC
Flight info
| Callsign | WZZ2VH |
|---|---|
| Flight time | 1h 22m |
| Altitude | 37000 |
| Route | TUXIL DCT ZOL DCT RADIS DCT SONAL DCT NONSA M602 USEDU P45 FARCU |
| Aircraft | A21N/M-SDE1E2E3FGIJ1J4RWXY/LB1 |
Departure
| Time | 2026-05-04 15:50 |
|---|---|
| Airport | Bergen Airport, Flesland (ENBR) |
Arrival
| Time | 2026-05-04 17:12 |
|---|---|
| Airport | Solidarity Szczecin–Goleniów Airport (EPSC) |
| Time | Latitude | Longitude | Altitude | Speed | Heading |
|---|---|---|---|---|---|
| 2026-05-04 15:26 | 60.28988 | 5.22649 | 179 ft | 0 kts | 157° |
| 2026-05-04 15:40 | 60.28993 | 5.22645 | 179 ft | 2 kts | 157° |
| 2026-05-04 15:40 | 60.29007 | 5.22635 | 179 ft | 2 kts | 177° |
| 2026-05-04 15:40 | 60.29022 | 5.22638 | 179 ft | 2 kts | 196° |
| 2026-05-04 15:40 | 60.29036 | 5.22651 | 178 ft | 2 kts | 219° |
| 2026-05-04 15:41 | 60.29046 | 5.22674 | 178 ft | 2 kts | 240° |
| 2026-05-04 15:41 | 60.29051 | 5.22697 | 177 ft | 0 kts | 258° |
| 2026-05-04 15:41 | 60.29052 | 5.22711 | 177 ft | 1 kts | 261° |
| 2026-05-04 15:41 | 60.29052 | 5.22712 | 177 ft | 0 kts | 261° |
| 2026-05-04 15:44 | 60.29052 | 5.22708 | 177 ft | 1 kts | 261° |
| 2026-05-04 15:45 | 60.29048 | 5.22665 | 178 ft | 4 kts | 262° |
| 2026-05-04 15:45 | 60.29042 | 5.22571 | 179 ft | 8 kts | 262° |
| 2026-05-04 15:45 | 60.29019 | 5.22426 | 178 ft | 13 kts | 224° |
| 2026-05-04 15:45 | 60.28945 | 5.22385 | 177 ft | 7 kts | 225° |
| 2026-05-04 15:46 | 60.28914 | 5.22283 | 174 ft | 8 kts | 193° |
| 2026-05-04 15:46 | 60.28851 | 5.22311 | 173 ft | 10 kts | 169° |
| 2026-05-04 15:46 | 60.28760 | 5.22343 | 172 ft | 15 kts | 169° |
| 2026-05-04 15:46 | 60.28677 | 5.22306 | 169 ft | 13 kts | 246° |
| 2026-05-04 15:47 | 60.28660 | 5.22127 | 164 ft | 9 kts | 263° |
| 2026-05-04 15:47 | 60.28664 | 5.22051 | 162 ft | 4 kts | 324° |
| 2026-05-04 15:47 | 60.28681 | 5.22040 | 163 ft | 0 kts | 350° |
| 2026-05-04 15:49 | 60.28682 | 5.22039 | 163 ft | 1 kts | 350° |
| 2026-05-04 15:49 | 60.28827 | 5.21990 | 166 ft | 54 kts | 350° |
| 2026-05-04 15:49 | 60.29438 | 5.21784 | 157 ft | 121 kts | 349° |
| 2026-05-04 15:49 | 60.30435 | 5.21448 | 291 ft | 159 kts | 349° |
| 2026-05-04 15:50 | 60.31524 | 5.21040 | 893 ft | 162 kts | 347° |
| 2026-05-04 15:50 | 60.32623 | 5.20584 | 1650 ft | 162 kts | 346° |
| 2026-05-04 15:50 | 60.33674 | 5.20165 | 2358 ft | 158 kts | 349° |
| 2026-05-04 15:50 | 60.34817 | 5.19867 | 2690 ft | 174 kts | 350° |
| 2026-05-04 15:51 | 60.36050 | 5.19513 | 3083 ft | 186 kts | 349° |
| 2026-05-04 15:51 | 60.37400 | 5.19066 | 3373 ft | 206 kts | 348° |
| 2026-05-04 15:51 | 60.38892 | 5.18560 | 3709 ft | 227 kts | 349° |
| 2026-05-04 15:51 | 60.40488 | 5.18051 | 4153 ft | 243 kts | 348° |
| 2026-05-04 15:52 | 60.42186 | 5.17501 | 4858 ft | 250 kts | 348° |
| 2026-05-04 15:52 | 60.43887 | 5.16942 | 5660 ft | 252 kts | 347° |
| 2026-05-04 15:52 | 60.45624 | 5.16342 | 6449 ft | 255 kts | 344° |
| 2026-05-04 15:52 | 60.47195 | 5.14905 | 7201 ft | 253 kts | 318° |
| 2026-05-04 15:53 | 60.48273 | 5.12165 | 8046 ft | 250 kts | 294° |
| 2026-05-04 15:53 | 60.48675 | 5.08789 | 8869 ft | 252 kts | 272° |
| 2026-05-04 15:53 | 60.48455 | 5.05307 | 9703 ft | 253 kts | 261° |
| 2026-05-04 15:53 | 60.47846 | 5.01953 | 10480 ft | 261 kts | 241° |
| 2026-05-04 15:54 | 60.46590 | 4.99347 | 11255 ft | 271 kts | 220° |
| 2026-05-04 15:54 | 60.44804 | 4.97816 | 11822 ft | 293 kts | 199° |
| 2026-05-04 15:54 | 60.42674 | 4.97800 | 12141 ft | 322 kts | 181° |
| 2026-05-04 15:54 | 60.40398 | 4.98303 | 12441 ft | 338 kts | 181° |
| 2026-05-04 15:55 | 60.38021 | 4.98827 | 12726 ft | 353 kts | 182° |
| 2026-05-04 15:55 | 60.35505 | 4.99366 | 12995 ft | 368 kts | 182° |
| 2026-05-04 15:55 | 60.32946 | 4.99901 | 13247 ft | 382 kts | 182° |
| 2026-05-04 15:55 | 60.30236 | 5.00466 | 13498 ft | 395 kts | 182° |
| 2026-05-04 15:56 | 60.27476 | 5.01146 | 13900 ft | 405 kts | 179° |
| 2026-05-04 15:56 | 60.24686 | 5.02171 | 14447 ft | 411 kts | 176° |
| 2026-05-04 15:56 | 60.21879 | 5.03293 | 15012 ft | 413 kts | 177° |
| 2026-05-04 15:56 | 60.19086 | 5.04432 | 15470 ft | 419 kts | 176° |
| 2026-05-04 15:57 | 60.16247 | 5.05920 | 15905 ft | 428 kts | 172° |
| 2026-05-04 15:57 | 60.13381 | 5.07896 | 16343 ft | 437 kts | 167° |
| 2026-05-04 15:57 | 60.10569 | 5.10254 | 16781 ft | 443 kts | 165° |
| 2026-05-04 15:57 | 60.07741 | 5.12703 | 17222 ft | 446 kts | 165° |
| 2026-05-04 15:58 | 60.04909 | 5.15157 | 17631 ft | 449 kts | 165° |
| 2026-05-04 15:58 | 60.02043 | 5.17631 | 18004 ft | 453 kts | 165° |
| 2026-05-04 15:58 | 59.99172 | 5.20093 | 18369 ft | 456 kts | 165° |
| 2026-05-04 15:58 | 59.96219 | 5.22614 | 18754 ft | 460 kts | 166° |
| 2026-05-04 15:59 | 59.93310 | 5.25091 | 19144 ft | 462 kts | 166° |
| 2026-05-04 15:59 | 59.90340 | 5.27611 | 19489 ft | 466 kts | 165° |
| 2026-05-04 15:59 | 59.87367 | 5.30134 | 19861 ft | 468 kts | 165° |
| 2026-05-04 15:59 | 59.84349 | 5.32684 | 20218 ft | 470 kts | 166° |
| 2026-05-04 16:00 | 59.81298 | 5.34907 | 20564 ft | 465 kts | 172° |
| 2026-05-04 16:00 | 59.78184 | 5.36421 | 20941 ft | 458 kts | 178° |
| 2026-05-04 16:00 | 59.75069 | 5.37240 | 21255 ft | 454 kts | 184° |
| 2026-05-04 16:00 | 59.71932 | 5.37754 | 21566 ft | 455 kts | 185° |
| 2026-05-04 16:01 | 59.68794 | 5.38220 | 21849 ft | 458 kts | 185° |
| 2026-05-04 16:01 | 59.65616 | 5.38713 | 22151 ft | 461 kts | 184° |
| 2026-05-04 16:01 | 59.62413 | 5.39444 | 22506 ft | 465 kts | 181° |
| 2026-05-04 16:01 | 59.59170 | 5.40275 | 22809 ft | 467 kts | 182° |
| 2026-05-04 16:02 | 59.55926 | 5.41089 | 23059 ft | 470 kts | 181° |
| 2026-05-04 16:02 | 59.52690 | 5.41898 | 23292 ft | 473 kts | 181° |
| 2026-05-04 16:02 | 59.46104 | 5.43562 | 23916 ft | 475 kts | 181° |
| 2026-05-04 16:03 | 59.42822 | 5.44385 | 24180 ft | 477 kts | 181° |
| 2026-05-04 16:03 | 59.39556 | 5.45297 | 24533 ft | 479 kts | 179° |
| 2026-05-04 16:03 | 59.36290 | 5.46496 | 24993 ft | 478 kts | 178° |
| 2026-05-04 16:03 | 59.32993 | 5.47705 | 25419 ft | 476 kts | 178° |
| 2026-05-04 16:04 | 59.29767 | 5.48874 | 25775 ft | 476 kts | 178° |
| 2026-05-04 16:04 | 59.23265 | 5.51219 | 26469 ft | 476 kts | 178° |
| 2026-05-04 16:04 | 59.19980 | 5.52402 | 26834 ft | 475 kts | 178° |
| 2026-05-04 16:05 | 59.16719 | 5.53581 | 27220 ft | 474 kts | 178° |
| 2026-05-04 16:05 | 59.13498 | 5.54743 | 27600 ft | 473 kts | 178° |
| 2026-05-04 16:05 | 59.07034 | 5.57068 | 28311 ft | 473 kts | 178° |
| 2026-05-04 16:06 | 59.03770 | 5.58239 | 28718 ft | 471 kts | 178° |
| 2026-05-04 16:06 | 58.95227 | 5.61290 | 29731 ft | 469 kts | 178° |
| 2026-05-04 16:07 | 58.90958 | 5.63496 | 30208 ft | 481 kts | 167° |
| 2026-05-04 16:07 | 58.82400 | 5.74147 | 31306 ft | 501 kts | 141° |
| 2026-05-04 16:08 | 58.79966 | 5.79054 | 31692 ft | 501 kts | 138° |
| 2026-05-04 16:08 | 58.72918 | 5.93708 | 32724 ft | 497 kts | 138° |
| 2026-05-04 16:09 | 58.68169 | 6.03420 | 33416 ft | 494 kts | 139° |
| 2026-05-04 16:09 | 58.63457 | 6.12948 | 34117 ft | 490 kts | 138° |
| 2026-05-04 16:10 | 58.58757 | 6.22401 | 34759 ft | 486 kts | 138° |
| 2026-05-04 16:11 | 58.51767 | 6.36371 | 35437 ft | 483 kts | 138° |
| 2026-05-04 16:11 | 58.49448 | 6.40991 | 35619 ft | 483 kts | 138° |
| 2026-05-04 16:12 | 58.42420 | 6.54926 | 36144 ft | 484 kts | 138° |
| 2026-05-04 16:12 | 58.35410 | 6.68750 | 36700 ft | 486 kts | 139° |
| 2026-05-04 16:13 | 58.30653 | 6.78073 | 36853 ft | 492 kts | 139° |
| 2026-05-04 16:13 | 58.25847 | 6.87459 | 36852 ft | 499 kts | 139° |
| 2026-05-04 16:14 | 58.16126 | 7.06334 | 36854 ft | 501 kts | 139° |
| 2026-05-04 16:16 | 58.03976 | 7.29701 | 36853 ft | 500 kts | 138° |
| 2026-05-04 16:17 | 57.91749 | 7.52975 | 36866 ft | 500 kts | 138° |
| 2026-05-04 16:18 | 57.81944 | 7.71464 | 36863 ft | 500 kts | 139° |
| 2026-05-04 16:19 | 57.69693 | 7.94357 | 36861 ft | 499 kts | 139° |
| 2026-05-04 16:20 | 57.57405 | 8.17085 | 36873 ft | 499 kts | 139° |
| 2026-05-04 16:22 | 57.45092 | 8.39634 | 36886 ft | 498 kts | 139° |
| 2026-05-04 16:23 | 57.30323 | 8.66387 | 36908 ft | 495 kts | 140° |
| 2026-05-04 16:25 | 57.15525 | 8.92872 | 36921 ft | 496 kts | 139° |
| 2026-05-04 16:26 | 56.98187 | 9.23517 | 36925 ft | 493 kts | 139° |
| 2026-05-04 16:28 | 56.85805 | 9.45149 | 36923 ft | 493 kts | 139° |
| 2026-05-04 16:29 | 56.68408 | 9.75198 | 36915 ft | 492 kts | 140° |
| 2026-05-04 16:31 | 56.55978 | 9.96423 | 36916 ft | 491 kts | 140° |
| 2026-05-04 16:32 | 56.41294 | 10.22292 | 36919 ft | 491 kts | 138° |
| 2026-05-04 16:33 | 56.31535 | 10.39462 | 36916 ft | 489 kts | 138° |
| 2026-05-04 16:34 | 56.24213 | 10.52248 | 36918 ft | 489 kts | 138° |
| 2026-05-04 16:35 | 56.09559 | 10.77627 | 36915 ft | 489 kts | 139° |
| 2026-05-04 16:36 | 56.02222 | 10.90225 | 36913 ft | 489 kts | 139° |
| 2026-05-04 16:37 | 55.94847 | 11.02823 | 36917 ft | 487 kts | 139° |
| 2026-05-04 16:38 | 55.85026 | 11.19491 | 36915 ft | 487 kts | 139° |
| 2026-05-04 16:39 | 55.72736 | 11.40169 | 36916 ft | 489 kts | 139° |
| 2026-05-04 16:40 | 55.62843 | 11.56685 | 36915 ft | 488 kts | 139° |
| 2026-05-04 16:41 | 55.50425 | 11.77246 | 36919 ft | 488 kts | 140° |
| 2026-05-04 16:43 | 55.38003 | 11.97623 | 36926 ft | 488 kts | 141° |
| 2026-05-04 16:43 | 55.30553 | 12.09757 | 36931 ft | 489 kts | 141° |
| 2026-05-04 16:45 | 55.15573 | 12.33965 | 36937 ft | 487 kts | 141° |
| 2026-05-04 16:46 | 55.03096 | 12.53929 | 36935 ft | 488 kts | 141° |
| 2026-05-04 16:47 | 54.93046 | 12.69891 | 36940 ft | 487 kts | 142° |
| 2026-05-04 16:48 | 54.83339 | 12.86517 | 36943 ft | 489 kts | 137° |
| 2026-05-04 16:49 | 54.74070 | 13.03800 | 36945 ft | 490 kts | 137° |
| 2026-05-04 16:50 | 54.64746 | 13.20901 | 36949 ft | 489 kts | 140° |
| 2026-05-04 16:51 | 54.59663 | 13.28481 | 36755 ft | 482 kts | 147° |
| 2026-05-04 16:51 | 54.56969 | 13.31801 | 36352 ft | 475 kts | 151° |
| 2026-05-04 16:51 | 54.51293 | 13.37504 | 35263 ft | 468 kts | 159° |
| 2026-05-04 16:52 | 54.45496 | 13.42487 | 33955 ft | 467 kts | 160° |
| 2026-05-04 16:52 | 54.42572 | 13.45008 | 33105 ft | 470 kts | 160° |
| 2026-05-04 16:53 | 54.36727 | 13.50057 | 31324 ft | 475 kts | 160° |
| 2026-05-04 16:53 | 54.27863 | 13.57673 | 28219 ft | 480 kts | 160° |
| 2026-05-04 16:54 | 54.24871 | 13.60230 | 26821 ft | 484 kts | 159° |
| 2026-05-04 16:55 | 54.12998 | 13.70437 | 23091 ft | 459 kts | 157° |
| 2026-05-04 16:55 | 54.07753 | 13.76601 | 21896 ft | 458 kts | 145° |
| 2026-05-04 16:56 | 54.03147 | 13.83934 | 20718 ft | 452 kts | 141° |
| 2026-05-04 16:56 | 53.96522 | 13.95088 | 18929 ft | 442 kts | 134° |
| 2026-05-04 16:57 | 53.94776 | 13.99373 | 18331 ft | 444 kts | 124° |
| 2026-05-04 16:57 | 53.92281 | 14.08879 | 17192 ft | 439 kts | 115° |
| 2026-05-04 16:58 | 53.88954 | 14.23087 | 15445 ft | 428 kts | 114° |
| 2026-05-04 16:58 | 53.87869 | 14.27815 | 14847 ft | 425 kts | 113° |
| 2026-05-04 16:59 | 53.85748 | 14.37141 | 13717 ft | 419 kts | 113° |
| 2026-05-04 17:00 | 53.81630 | 14.55066 | 11456 ft | 403 kts | 113° |
| 2026-05-04 17:00 | 53.78705 | 14.67694 | 10687 ft | 365 kts | 114° |
| 2026-05-04 17:01 | 53.76790 | 14.75370 | 10295 ft | 339 kts | 122° |
| 2026-05-04 17:01 | 53.74076 | 14.81440 | 9980 ft | 309 kts | 135° |
| 2026-05-04 17:02 | 53.71312 | 14.86731 | 9406 ft | 297 kts | 135° |
| 2026-05-04 17:02 | 53.68601 | 14.91942 | 8636 ft | 293 kts | 135° |
| 2026-05-04 17:03 | 53.67258 | 14.94540 | 8300 ft | 290 kts | 134° |
| 2026-05-04 17:03 | 53.65937 | 14.97102 | 7942 ft | 288 kts | 134° |
| 2026-05-04 17:03 | 53.63319 | 15.02175 | 7277 ft | 282 kts | 134° |
| 2026-05-04 17:04 | 53.60767 | 15.07113 | 6588 ft | 277 kts | 134° |
| 2026-05-04 17:04 | 53.58257 | 15.11960 | 5940 ft | 271 kts | 134° |
| 2026-05-04 17:05 | 53.55783 | 15.16725 | 5295 ft | 267 kts | 133° |
| 2026-05-04 17:05 | 53.53346 | 15.21412 | 4645 ft | 264 kts | 133° |
| 2026-05-04 17:06 | 53.50397 | 15.24514 | 3927 ft | 251 kts | 184° |
| 2026-05-04 17:06 | 53.48759 | 15.23785 | 3597 ft | 241 kts | 214° |
| 2026-05-04 17:07 | 53.46347 | 15.20269 | 3476 ft | 222 kts | 225° |
| 2026-05-04 17:07 | 53.45610 | 15.19070 | 3469 ft | 221 kts | 233° |
| 2026-05-04 17:07 | 53.45114 | 15.15915 | 3331 ft | 218 kts | 284° |
| 2026-05-04 17:07 | 53.45897 | 15.13747 | 2962 ft | 218 kts | 313° |
| 2026-05-04 17:08 | 53.46979 | 15.11972 | 2633 ft | 218 kts | 316° |
| 2026-05-04 17:08 | 53.49032 | 15.08548 | 2536 ft | 198 kts | 313° |
| 2026-05-04 17:08 | 53.49952 | 15.06817 | 2441 ft | 198 kts | 311° |
| 2026-05-04 17:09 | 53.50851 | 15.05060 | 2190 ft | 198 kts | 311° |
| 2026-05-04 17:09 | 53.51741 | 15.03311 | 1982 ft | 191 kts | 311° |
| 2026-05-04 17:09 | 53.52585 | 15.01660 | 1743 ft | 184 kts | 312° |
| 2026-05-04 17:10 | 53.54125 | 14.98661 | 1249 ft | 154 kts | 312° |
| 2026-05-04 17:10 | 53.56078 | 14.94892 | 633 ft | 139 kts | 312° |
| 2026-05-04 17:11 | 53.56703 | 14.93671 | 484 ft | 138 kts | 310° |
| 2026-05-04 17:11 | 53.57317 | 14.92423 | 315 ft | 138 kts | 314° |
| 2026-05-04 17:11 | 53.58527 | 14.90116 | 160 ft | 106 kts | 311° |
| 2026-05-04 17:12 | 53.58863 | 14.89471 | 160 ft | 57 kts | 313° |
| 2026-05-04 17:12 | 53.59116 | 14.89171 | 160 ft | 8 kts | 40° |
| 2026-05-04 17:13 | 53.59152 | 14.89222 | 160 ft | 6 kts | 34° |
| 2026-05-04 17:14 | 53.59277 | 14.89241 | 160 ft | 0 kts | 45° |
| 2026-05-04 17:14 | 53.59281 | 14.89248 | 160 ft | 0 kts | 41° |